sensor_id;sensor_type;location;lat;lon;timestamp;P1;durP1;ratioP1;P2;durP2;ratioP2
15516;SDS011;7860;52.030;5.572;2023-03-01T00:03:14;18.90;;;11.35;;
15516;SDS011;7860;52.030;5.572;2023-03-01T00:03:14;17.86;;;11.32;;
15516;SDS011;7860;52.030;5.572;2023-03-01T00:03:14;17.64;;;11.18;;
15516;SDS011;7860;52.030;5.572;2023-03-01T00:03:14;19.76;;;12.08;;
15516;SDS011;7860;52.030;5.572;2023-03-01T00:04:11;18.48;;;11.15;;
15516;SDS011;7860;52.030;5.572;2023-03-01T00:05:12;19.43;;;11.81;;
15516;SDS011;7860;52.030;5.572;2023-03-01T00:06:13;15.48;;;10.02;;
15516;SDS011;7860;52.030;5.572;2023-03-01T00:07:14;16.19;;;9.99;;
15516;SDS011;7860;52.030;5.572;2023-03-01T00:08:14;18.64;;;11.02;;
15516;SDS011;7860;52.030;5.572;2023-03-01T00:09:15;19.55;;;11.77;;
15516;SDS011;7860;52.030;5.572;2023-03-01T00:10:16;20.64;;;11.27;;
15516;SDS011;7860;52.030;5.572;2023-03-01T00:11:18;17.62;;;11.28;;
15516;SDS011;7860;52.030;5.572;2023-03-01T00:12:18;18.64;;;11.13;;
15516;SDS011;7860;52.030;5.572;2023-03-01T00:13:19;18.11;;;11.54;;
15516;SDS011;7860;52.030;5.572;2023-03-01T00:14:20;17.10;;;10.87;;
15516;SDS011;7860;52.030;5.572;2023-03-01T00:15:20;17.19;;;11.34;;
15516;SDS011;7860;52.030;5.572;2023-03-01T00:16:21;15.91;;;10.25;;
15516;SDS011;7860;52.030;5.572;2023-03-01T00:17:21;18.32;;;10.90;;
15516;SDS011;7860;52.030;5.572;2023-03-01T00:18:21;19.14;;;11.68;;
15516;SDS011;7860;52.030;5.572;2023-03-01T00:19:22;17.47;;;11.33;;
15516;SDS011;7860;52.030;5.572;2023-03-01T00:20:23;17.66;;;11.29;;
15516;SDS011;7860;52.030;5.572;2023-03-01T00:21:24;21.00;;;11.63;;
15516;SDS011;7860;52.030;5.572;2023-03-01T00:22:26;18.57;;;11.45;;
15516;SDS011;7860;52.030;5.572;2023-03-01T00:23:26;16.22;;;10.98;;
15516;SDS011;7860;52.030;5.572;2023-03-01T00:24:26;16.81;;;10.84;;
15516;SDS011;7860;52.030;5.572;2023-03-01T00:25:27;17.89;;;11.24;;
15516;SDS011;7860;52.030;5.572;2023-03-01T00:26:28;18.06;;;11.32;;
15516;SDS011;7860;52.030;5.572;2023-03-01T00:27:28;14.86;;;10.53;;
15516;SDS011;7860;52.030;5.572;2023-03-01T00:28:29;16.76;;;11.52;;
15516;SDS011;7860;52.030;5.572;2023-03-01T00:29:30;17.63;;;11.54;;
15516;SDS011;7860;52.030;5.572;2023-03-01T00:30:31;18.29;;;11.74;;
15516;SDS011;7860;52.030;5.572;2023-03-01T00:31:32;17.97;;;11.97;;
15516;SDS011;7860;52.030;5.572;2023-03-01T00:32:33;16.74;;;11.36;;
15516;SDS011;7860;52.030;5.572;2023-03-01T00:33:33;18.91;;;11.62;;
15516;SDS011;7860;52.030;5.572;2023-03-01T00:34:34;18.75;;;11.40;;
15516;SDS011;7860;52.030;5.572;2023-03-01T00:35:35;17.12;;;11.39;;
15516;SDS011;7860;52.030;5.572;2023-03-01T00:36:36;16.49;;;11.13;;
15516;SDS011;7860;52.030;5.572;2023-03-01T00:37:36;17.56;;;11.74;;
15516;SDS011;7860;52.030;5.572;2023-03-01T00:38:38;17.42;;;11.14;;
15516;SDS011;7860;52.030;5.572;2023-03-01T00:39:37;17.91;;;11.75;;
15516;SDS011;7860;52.030;5.572;2023-03-01T00:40:38;18.19;;;11.96;;
15516;SDS011;7860;52.030;5.572;2023-03-01T00:41:38;16.16;;;11.33;;
15516;SDS011;7860;52.030;5.572;2023-03-01T00:42:39;17.55;;;11.62;;
15516;SDS011;7860;52.030;5.572;2023-03-01T00:43:40;16.98;;;11.17;;
15516;SDS011;7860;52.030;5.572;2023-03-01T00:44:41;19.21;;;12.07;;
15516;SDS011;7860;52.030;5.572;2023-03-01T00:45:42;17.78;;;11.69;;
15516;SDS011;7860;52.030;5.572;2023-03-01T00:46:43;18.46;;;11.39;;
15516;SDS011;7860;52.030;5.572;2023-03-01T00:47:44;17.66;;;11.14;;
15516;SDS011;7860;52.030;5.572;2023-03-01T00:48:45;20.59;;;12.15;;
15516;SDS011;7860;52.030;5.572;2023-03-01T00:49:45;17.68;;;11.64;;
15516;SDS011;7860;52.030;5.572;2023-03-01T00:50:46;18.37;;;11.98;;
15516;SDS011;7860;52.030;5.572;2023-03-01T00:51:47;18.02;;;11.81;;
15516;SDS011;7860;52.030;5.572;2023-03-01T00:52:51;21.22;;;12.71;;
15516;SDS011;7860;52.030;5.572;2023-03-01T00:53:49;18.04;;;12.09;;
15516;SDS011;7860;52.030;5.572;2023-03-01T00:54:51;17.74;;;11.62;;
15516;SDS011;7860;52.030;5.572;2023-03-01T00:55:50;18.77;;;12.03;;
15516;SDS011;7860;52.030;5.572;2023-03-01T00:56:51;17.90;;;12.00;;
15516;SDS011;7860;52.030;5.572;2023-03-01T00:57:52;16.41;;;11.60;;
15516;SDS011;7860;52.030;5.572;2023-03-01T00:58:52;18.06;;;11.15;;
15516;SDS011;7860;52.030;5.572;2023-03-01T00:59:53;16.45;;;10.89;;
15516;SDS011;7860;52.030;5.572;2023-03-01T01:00:54;17.00;;;10.81;;
15516;SDS011;7860;52.030;5.572;2023-03-01T01:01:55;18.82;;;11.50;;
15516;SDS011;7860;52.030;5.572;2023-03-01T01:02:56;18.07;;;11.37;;
15516;SDS011;7860;52.030;5.572;2023-03-01T01:03:57;19.35;;;11.84;;
15516;SDS011;7860;52.030;5.572;2023-03-01T01:04:57;16.78;;;11.39;;
15516;SDS011;7860;52.030;5.572;2023-03-01T01:05:58;17.82;;;11.45;;
15516;SDS011;7860;52.030;5.572;2023-03-01T01:06:59;17.74;;;11.44;;
15516;SDS011;7860;52.030;5.572;2023-03-01T01:08:00;16.88;;;11.91;;
15516;SDS011;7860;52.030;5.572;2023-03-01T01:09:01;17.86;;;11.99;;
15516;SDS011;7860;52.030;5.572;2023-03-01T01:10:02;17.08;;;11.88;;
15516;SDS011;7860;52.030;5.572;2023-03-01T01:11:02;17.07;;;10.83;;
15516;SDS011;7860;52.030;5.572;2023-03-01T01:12:03;17.10;;;11.60;;
15516;SDS011;7860;52.030;5.572;2023-03-01T01:13:03;15.25;;;10.98;;
15516;SDS011;7860;52.030;5.572;2023-03-01T01:14:04;16.25;;;11.18;;
15516;SDS011;7860;52.030;5.572;2023-03-01T01:15:05;16.24;;;10.85;;
15516;SDS011;7860;52.030;5.572;2023-03-01T01:16:06;16.03;;;10.58;;
15516;SDS011;7860;52.030;5.572;2023-03-01T01:17:06;16.40;;;11.31;;
15516;SDS011;7860;52.030;5.572;2023-03-01T01:18:07;15.84;;;10.87;;
15516;SDS011;7860;52.030;5.572;2023-03-01T01:19:08;16.07;;;10.60;;
15516;SDS011;7860;52.030;5.572;2023-03-01T01:20:09;16.11;;;10.65;;
15516;SDS011;7860;52.030;5.572;2023-03-01T01:21:10;17.22;;;10.75;;
15516;SDS011;7860;52.030;5.572;2023-03-01T01:22:10;15.37;;;10.99;;
15516;SDS011;7860;52.030;5.572;2023-03-01T01:23:11;15.85;;;10.97;;
15516;SDS011;7860;52.030;5.572;2023-03-01T01:24:12;16.02;;;10.43;;
15516;SDS011;7860;52.030;5.572;2023-03-01T01:25:13;17.33;;;10.69;;
15516;SDS011;7860;52.030;5.572;2023-03-01T01:26:15;17.49;;;11.40;;
15516;SDS011;7860;52.030;5.572;2023-03-01T01:27:15;17.08;;;10.80;;
15516;SDS011;7860;52.030;5.572;2023-03-01T01:28:16;18.01;;;11.08;;
15516;SDS011;7860;52.030;5.572;2023-03-01T01:29:17;18.06;;;11.29;;
15516;SDS011;7860;52.030;5.572;2023-03-01T01:30:18;19.28;;;11.12;;
15516;SDS011;7860;52.030;5.572;2023-03-01T01:31:19;16.72;;;10.43;;
15516;SDS011;7860;52.030;5.572;2023-03-01T01:32:19;19.99;;;11.57;;
15516;SDS011;7860;52.030;5.572;2023-03-01T01:33:20;24.00;;;12.05;;
15516;SDS011;7860;52.030;5.572;2023-03-01T01:34:21;16.07;;;10.47;;
15516;SDS011;7860;52.030;5.572;2023-03-01T01:35:22;17.22;;;10.28;;
15516;SDS011;7860;52.030;5.572;2023-03-01T01:36:23;15.96;;;10.62;;
15516;SDS011;7860;52.030;5.572;2023-03-01T01:37:23;16.15;;;10.76;;
15516;SDS011;7860;52.030;5.572;2023-03-01T01:38:24;16.52;;;10.85;;
15516;SDS011;7860;52.030;5.572;2023-03-01T01:39:25;14.04;;;10.00;;
15516;SDS011;7860;52.030;5.572;2023-03-01T01:40:25;14.59;;;10.26;;
15516;SDS011;7860;52.030;5.572;2023-03-01T01:41:27;14.17;;;10.65;;
15516;SDS011;7860;52.030;5.572;2023-03-01T01:42:27;18.41;;;10.89;;
15516;SDS011;7860;52.030;5.572;2023-03-01T01:43:28;17.87;;;10.82;;
15516;SDS011;7860;52.030;5.572;2023-03-01T01:44:28;17.47;;;10.85;;
15516;SDS011;7860;52.030;5.572;2023-03-01T01:45:31;17.29;;;10.68;;
15516;SDS011;7860;52.030;5.572;2023-03-01T01:46:30;18.94;;;11.37;;
15516;SDS011;7860;52.030;5.572;2023-03-01T01:47:30;17.20;;;10.17;;
15516;SDS011;7860;52.030;5.572;2023-03-01T01:48:32;17.26;;;10.69;;
15516;SDS011;7860;52.030;5.572;2023-03-01T01:49:32;15.70;;;10.45;;
15516;SDS011;7860;52.030;5.572;2023-03-01T01:50:32;19.19;;;11.48;;
15516;SDS011;7860;52.030;5.572;2023-03-01T01:51:34;18.94;;;11.54;;
15516;SDS011;7860;52.030;5.572;2023-03-01T01:52:33;16.20;;;10.81;;
15516;SDS011;7860;52.030;5.572;2023-03-01T01:53:33;17.17;;;10.19;;
15516;SDS011;7860;52.030;5.572;2023-03-01T01:54:37;16.43;;;10.57;;
15516;SDS011;7860;52.030;5.572;2023-03-01T01:55:35;16.80;;;10.65;;
15516;SDS011;7860;52.030;5.572;2023-03-01T01:56:36;16.60;;;10.13;;
15516;SDS011;7860;52.030;5.572;2023-03-01T01:57:37;14.42;;;9.72;;
15516;SDS011;7860;52.030;5.572;2023-03-01T01:58:38;15.43;;;10.38;;
15516;SDS011;7860;52.030;5.572;2023-03-01T01:59:39;16.36;;;10.15;;
15516;SDS011;7860;52.030;5.572;2023-03-01T02:00:39;17.05;;;10.36;;
15516;SDS011;7860;52.030;5.572;2023-03-01T02:01:40;16.75;;;10.48;;
15516;SDS011;7860;52.030;5.572;2023-03-01T02:02:40;14.59;;;10.13;;
15516;SDS011;7860;52.030;5.572;2023-03-01T02:03:41;16.75;;;10.58;;
15516;SDS011;7860;52.030;5.572;2023-03-01T02:04:41;15.88;;;10.15;;
15516;SDS011;7860;52.030;5.572;2023-03-01T02:05:42;16.61;;;10.42;;
15516;SDS011;7860;52.030;5.572;2023-03-01T02:06:44;16.26;;;10.53;;
15516;SDS011;7860;52.030;5.572;2023-03-01T02:07:43;16.14;;;10.39;;
15516;SDS011;7860;52.030;5.572;2023-03-01T02:08:44;17.10;;;10.42;;
15516;SDS011;7860;52.030;5.572;2023-03-01T02:09:46;16.77;;;10.83;;
15516;SDS011;7860;52.030;5.572;2023-03-01T02:10:46;15.69;;;9.95;;
15516;SDS011;7860;52.030;5.572;2023-03-01T02:11:47;14.41;;;9.82;;
15516;SDS011;7860;52.030;5.572;2023-03-01T02:12:47;16.42;;;10.35;;
15516;SDS011;7860;52.030;5.572;2023-03-01T02:13:48;14.99;;;10.29;;
15516;SDS011;7860;52.030;5.572;2023-03-01T02:14:49;17.45;;;10.18;;
15516;SDS011;7860;52.030;5.572;2023-03-01T02:15:50;16.07;;;10.20;;
15516;SDS011;7860;52.030;5.572;2023-03-01T02:16:51;14.70;;;10.29;;
15516;SDS011;7860;52.030;5.572;2023-03-01T02:17:51;16.35;;;9.81;;
15516;SDS011;7860;52.030;5.572;2023-03-01T02:18:52;15.35;;;9.78;;
15516;SDS011;7860;52.030;5.572;2023-03-01T02:19:57;14.94;;;9.64;;
15516;SDS011;7860;52.030;5.572;2023-03-01T02:20:57;14.10;;;9.64;;
15516;SDS011;7860;52.030;5.572;2023-03-01T02:21:55;16.16;;;10.05;;
15516;SDS011;7860;52.030;5.572;2023-03-01T02:22:55;16.63;;;10.59;;
15516;SDS011;7860;52.030;5.572;2023-03-01T02:23:57;16.06;;;10.64;;
15516;SDS011;7860;52.030;5.572;2023-03-01T02:25:00;17.55;;;10.46;;
15516;SDS011;7860;52.030;5.572;2023-03-01T02:25:58;17.19;;;10.71;;
15516;SDS011;7860;52.030;5.572;2023-03-01T02:26:58;17.15;;;11.23;;
15516;SDS011;7860;52.030;5.572;2023-03-01T02:28:00;17.33;;;11.06;;
15516;SDS011;7860;52.030;5.572;2023-03-01T02:28:59;19.04;;;10.46;;
15516;SDS011;7860;52.030;5.572;2023-03-01T02:30:00;16.42;;;10.40;;
15516;SDS011;7860;52.030;5.572;2023-03-01T02:31:01;18.64;;;11.40;;
15516;SDS011;7860;52.030;5.572;2023-03-01T02:32:02;18.40;;;10.71;;
15516;SDS011;7860;52.030;5.572;2023-03-01T02:33:02;19.01;;;11.57;;
15516;SDS011;7860;52.030;5.572;2023-03-01T02:34:02;18.46;;;11.36;;
15516;SDS011;7860;52.030;5.572;2023-03-01T02:35:02;20.27;;;11.82;;
15516;SDS011;7860;52.030;5.572;2023-03-01T02:36:03;16.68;;;10.87;;
15516;SDS011;7860;52.030;5.572;2023-03-01T02:37:05;17.62;;;11.22;;
15516;SDS011;7860;52.030;5.572;2023-03-01T02:38:06;16.50;;;10.69;;
15516;SDS011;7860;52.030;5.572;2023-03-01T02:39:06;16.35;;;10.19;;
15516;SDS011;7860;52.030;5.572;2023-03-01T02:40:07;16.19;;;11.04;;
15516;SDS011;7860;52.030;5.572;2023-03-01T02:41:06;15.75;;;10.54;;
15516;SDS011;7860;52.030;5.572;2023-03-01T02:42:07;17.21;;;10.66;;
15516;SDS011;7860;52.030;5.572;2023-03-01T02:43:07;17.46;;;10.72;;
15516;SDS011;7860;52.030;5.572;2023-03-01T02:44:08;16.77;;;11.36;;
15516;SDS011;7860;52.030;5.572;2023-03-01T02:45:09;16.83;;;11.31;;
15516;SDS011;7860;52.030;5.572;2023-03-01T02:46:14;17.15;;;11.26;;
15516;SDS011;7860;52.030;5.572;2023-03-01T02:47:11;15.46;;;10.70;;
15516;SDS011;7860;52.030;5.572;2023-03-01T02:48:12;17.09;;;11.15;;
15516;SDS011;7860;52.030;5.572;2023-03-01T02:49:18;17.56;;;11.69;;
15516;SDS011;7860;52.030;5.572;2023-03-01T02:50:16;17.39;;;10.88;;
15516;SDS011;7860;52.030;5.572;2023-03-01T02:51:45;16.63;;;10.99;;
15516;SDS011;7860;52.030;5.572;2023-03-01T02:52:21;16.12;;;10.40;;
15516;SDS011;7860;52.030;5.572;2023-03-01T02:53:16;16.94;;;10.72;;
15516;SDS011;7860;52.030;5.572;2023-03-01T02:54:18;15.79;;;10.20;;
15516;SDS011;7860;52.030;5.572;2023-03-01T02:55:17;17.06;;;10.99;;
15516;SDS011;7860;52.030;5.572;2023-03-01T02:56:18;15.36;;;10.11;;
15516;SDS011;7860;52.030;5.572;2023-03-01T02:57:19;16.55;;;11.10;;
15516;SDS011;7860;52.030;5.572;2023-03-01T02:58:20;17.75;;;11.24;;
15516;SDS011;7860;52.030;5.572;2023-03-01T02:59:22;18.36;;;11.04;;
15516;SDS011;7860;52.030;5.572;2023-03-01T03:00:23;15.73;;;9.95;;
15516;SDS011;7860;52.030;5.572;2023-03-01T03:01:22;14.72;;;10.15;;
15516;SDS011;7860;52.030;5.572;2023-03-01T03:02:23;14.05;;;9.50;;
15516;SDS011;7860;52.030;5.572;2023-03-01T03:03:23;15.88;;;10.60;;
15516;SDS011;7860;52.030;5.572;2023-03-01T03:04:24;15.94;;;10.82;;
15516;SDS011;7860;52.030;5.572;2023-03-01T03:05:26;17.48;;;10.99;;
15516;SDS011;7860;52.030;5.572;2023-03-01T03:06:26;14.87;;;10.72;;
15516;SDS011;7860;52.030;5.572;2023-03-01T03:07:27;16.01;;;11.14;;
15516;SDS011;7860;52.030;5.572;2023-03-01T03:08:28;16.48;;;10.87;;
15516;SDS011;7860;52.030;5.572;2023-03-01T03:09:29;16.84;;;10.58;;
15516;SDS011;7860;52.030;5.572;2023-03-01T03:10:31;15.19;;;10.41;;
15516;SDS011;7860;52.030;5.572;2023-03-01T03:11:31;17.22;;;11.23;;
15516;SDS011;7860;52.030;5.572;2023-03-01T03:12:31;16.84;;;11.10;;
15516;SDS011;7860;52.030;5.572;2023-03-01T03:13:31;16.42;;;10.94;;
15516;SDS011;7860;52.030;5.572;2023-03-01T03:14:32;17.41;;;11.16;;
15516;SDS011;7860;52.030;5.572;2023-03-01T03:15:33;15.93;;;10.61;;
15516;SDS011;7860;52.030;5.572;2023-03-01T03:16:33;16.05;;;11.00;;
15516;SDS011;7860;52.030;5.572;2023-03-01T03:17:34;17.19;;;11.09;;
15516;SDS011;7860;52.030;5.572;2023-03-01T03:18:35;18.19;;;11.17;;
15516;SDS011;7860;52.030;5.572;2023-03-01T03:19:36;16.84;;;10.88;;
15516;SDS011;7860;52.030;5.572;2023-03-01T03:20:37;18.34;;;11.42;;
15516;SDS011;7860;52.030;5.572;2023-03-01T03:21:38;18.72;;;11.42;;
15516;SDS011;7860;52.030;5.572;2023-03-01T03:22:39;16.29;;;10.54;;
15516;SDS011;7860;52.030;5.572;2023-03-01T03:23:39;16.21;;;11.06;;
15516;SDS011;7860;52.030;5.572;2023-03-01T03:24:40;17.10;;;11.35;;
15516;SDS011;7860;52.030;5.572;2023-03-01T03:25:41;16.94;;;11.00;;
15516;SDS011;7860;52.030;5.572;2023-03-01T03:26:42;17.94;;;11.68;;
15516;SDS011;7860;52.030;5.572;2023-03-01T03:27:43;16.86;;;12.20;;
15516;SDS011;7860;52.030;5.572;2023-03-01T03:28:44;17.28;;;11.39;;
15516;SDS011;7860;52.030;5.572;2023-03-01T03:29:45;17.92;;;11.24;;
15516;SDS011;7860;52.030;5.572;2023-03-01T03:30:46;16.68;;;11.67;;
15516;SDS011;7860;52.030;5.572;2023-03-01T03:31:47;17.18;;;12.05;;
15516;SDS011;7860;52.030;5.572;2023-03-01T03:32:50;17.73;;;11.85;;
15516;SDS011;7860;52.030;5.572;2023-03-01T03:33:49;18.77;;;11.64;;
15516;SDS011;7860;52.030;5.572;2023-03-01T03:34:49;20.91;;;12.28;;
15516;SDS011;7860;52.030;5.572;2023-03-01T03:35:49;20.00;;;12.49;;
15516;SDS011;7860;52.030;5.572;2023-03-01T03:36:52;18.95;;;11.39;;
15516;SDS011;7860;52.030;5.572;2023-03-01T03:37:52;18.50;;;11.79;;
15516;SDS011;7860;52.030;5.572;2023-03-01T03:38:51;16.98;;;11.52;;
15516;SDS011;7860;52.030;5.572;2023-03-01T03:39:52;19.20;;;12.16;;
15516;SDS011;7860;52.030;5.572;2023-03-01T03:40:59;18.03;;;11.73;;
15516;SDS011;7860;52.030;5.572;2023-03-01T03:41:53;17.63;;;11.80;;
15516;SDS011;7860;52.030;5.572;2023-03-01T03:42:54;19.50;;;11.91;;
15516;SDS011;7860;52.030;5.572;2023-03-01T03:43:54;17.89;;;11.44;;
15516;SDS011;7860;52.030;5.572;2023-03-01T03:44:55;18.85;;;12.54;;
15516;SDS011;7860;52.030;5.572;2023-03-01T03:45:56;16.61;;;11.74;;
15516;SDS011;7860;52.030;5.572;2023-03-01T03:46:57;18.26;;;11.86;;
15516;SDS011;7860;52.030;5.572;2023-03-01T03:47:58;16.98;;;11.64;;
15516;SDS011;7860;52.030;5.572;2023-03-01T03:48:58;16.69;;;11.53;;
15516;SDS011;7860;52.030;5.572;2023-03-01T03:49:59;18.26;;;11.62;;
15516;SDS011;7860;52.030;5.572;2023-03-01T03:51:00;15.53;;;11.29;;
15516;SDS011;7860;52.030;5.572;2023-03-01T03:52:01;18.81;;;12.11;;
15516;SDS011;7860;52.030;5.572;2023-03-01T03:53:03;15.83;;;11.30;;
15516;SDS011;7860;52.030;5.572;2023-03-01T03:54:02;17.67;;;11.65;;
15516;SDS011;7860;52.030;5.572;2023-03-01T03:55:04;16.32;;;11.45;;
15516;SDS011;7860;52.030;5.572;2023-03-01T03:56:05;17.66;;;11.82;;
15516;SDS011;7860;52.030;5.572;2023-03-01T03:57:04;17.97;;;11.25;;
15516;SDS011;7860;52.030;5.572;2023-03-01T03:58:05;16.03;;;11.40;;
15516;SDS011;7860;52.030;5.572;2023-03-01T03:59:06;17.40;;;11.62;;
15516;SDS011;7860;52.030;5.572;2023-03-01T04:00:08;15.63;;;10.78;;
15516;SDS011;7860;52.030;5.572;2023-03-01T04:01:08;18.64;;;11.57;;
15516;SDS011;7860;52.030;5.572;2023-03-01T04:02:09;16.09;;;10.95;;
15516;SDS011;7860;52.030;5.572;2023-03-01T04:03:10;16.09;;;10.85;;
15516;SDS011;7860;52.030;5.572;2023-03-01T04:04:10;16.27;;;11.64;;
15516;SDS011;7860;52.030;5.572;2023-03-01T04:05:11;15.49;;;10.37;;
15516;SDS011;7860;52.030;5.572;2023-03-01T04:06:12;16.92;;;10.80;;
15516;SDS011;7860;52.030;5.572;2023-03-01T04:07:11;15.93;;;11.23;;
15516;SDS011;7860;52.030;5.572;2023-03-01T04:08:12;15.69;;;11.17;;
15516;SDS011;7860;52.030;5.572;2023-03-01T04:09:13;17.58;;;11.34;;
15516;SDS011;7860;52.030;5.572;2023-03-01T04:10:15;15.53;;;10.95;;
15516;SDS011;7860;52.030;5.572;2023-03-01T04:11:15;16.22;;;10.60;;
15516;SDS011;7860;52.030;5.572;2023-03-01T04:12:16;16.18;;;11.01;;
15516;SDS011;7860;52.030;5.572;2023-03-01T04:13:18;16.43;;;11.27;;
15516;SDS011;7860;52.030;5.572;2023-03-01T04:14:17;18.08;;;11.49;;
15516;SDS011;7860;52.030;5.572;2023-03-01T04:15:18;17.36;;;11.49;;
15516;SDS011;7860;52.030;5.572;2023-03-01T04:16:19;18.83;;;11.56;;
15516;SDS011;7860;52.030;5.572;2023-03-01T04:17:20;17.75;;;11.98;;
15516;SDS011;7860;52.030;5.572;2023-03-01T04:18:23;16.42;;;11.75;;
15516;SDS011;7860;52.030;5.572;2023-03-01T04:19:22;17.29;;;11.82;;
15516;SDS011;7860;52.030;5.572;2023-03-01T04:20:24;17.09;;;11.84;;
15516;SDS011;7860;52.030;5.572;2023-03-01T04:21:24;17.17;;;11.78;;
15516;SDS011;7860;52.030;5.572;2023-03-01T04:22:25;17.84;;;11.77;;
15516;SDS011;7860;52.030;5.572;2023-03-01T04:23:26;16.44;;;11.59;;
15516;SDS011;7860;52.030;5.572;2023-03-01T04:24:27;17.14;;;11.93;;
15516;SDS011;7860;52.030;5.572;2023-03-01T04:25:27;19.14;;;12.27;;
15516;SDS011;7860;52.030;5.572;2023-03-01T04:26:28;17.23;;;11.80;;
15516;SDS011;7860;52.030;5.572;2023-03-01T04:27:29;18.07;;;11.57;;
15516;SDS011;7860;52.030;5.572;2023-03-01T04:28:31;18.24;;;11.98;;
15516;SDS011;7860;52.030;5.572;2023-03-01T04:29:31;18.25;;;12.48;;
15516;SDS011;7860;52.030;5.572;2023-03-01T04:30:32;17.40;;;11.40;;
15516;SDS011;7860;52.030;5.572;2023-03-01T04:31:33;16.42;;;11.44;;
15516;SDS011;7860;52.030;5.572;2023-03-01T04:32:34;19.89;;;12.03;;
15516;SDS011;7860;52.030;5.572;2023-03-01T04:33:35;17.20;;;11.92;;
15516;SDS011;7860;52.030;5.572;2023-03-01T04:34:36;16.22;;;11.39;;
15516;SDS011;7860;52.030;5.572;2023-03-01T04:35:37;19.11;;;12.02;;
15516;SDS011;7860;52.030;5.572;2023-03-01T04:36:37;17.51;;;11.63;;
15516;SDS011;7860;52.030;5.572;2023-03-01T04:37:38;17.51;;;11.89;;
15516;SDS011;7860;52.030;5.572;2023-03-01T04:38:40;17.70;;;12.16;;
15516;SDS011;7860;52.030;5.572;2023-03-01T04:39:40;17.70;;;12.11;;
15516;SDS011;7860;52.030;5.572;2023-03-01T04:40:41;18.01;;;12.27;;
15516;SDS011;7860;52.030;5.572;2023-03-01T04:41:42;18.55;;;12.23;;
15516;SDS011;7860;52.030;5.572;2023-03-01T04:42:43;18.58;;;12.33;;
15516;SDS011;7860;52.030;5.572;2023-03-01T04:43:44;18.31;;;12.21;;
15516;SDS011;7860;52.030;5.572;2023-03-01T04:44:45;18.58;;;12.36;;
15516;SDS011;7860;52.030;5.572;2023-03-01T04:45:45;19.21;;;12.44;;
15516;SDS011;7860;52.030;5.572;2023-03-01T04:46:48;17.95;;;12.41;;
15516;SDS011;7860;52.030;5.572;2023-03-01T04:47:46;16.38;;;11.83;;
15516;SDS011;7860;52.030;5.572;2023-03-01T04:48:47;18.55;;;12.12;;
15516;SDS011;7860;52.030;5.572;2023-03-01T04:49:48;17.72;;;12.01;;
15516;SDS011;7860;52.030;5.572;2023-03-01T04:50:49;16.88;;;11.83;;
15516;SDS011;7860;52.030;5.572;2023-03-01T04:51:50;19.05;;;12.14;;
15516;SDS011;7860;52.030;5.572;2023-03-01T04:52:51;17.34;;;11.67;;
15516;SDS011;7860;52.030;5.572;2023-03-01T04:53:52;16.74;;;11.76;;
15516;SDS011;7860;52.030;5.572;2023-03-01T04:54:53;18.60;;;12.40;;
15516;SDS011;7860;52.030;5.572;2023-03-01T04:55:54;15.84;;;11.31;;
15516;SDS011;7860;52.030;5.572;2023-03-01T04:56:54;16.71;;;11.75;;
15516;SDS011;7860;52.030;5.572;2023-03-01T04:57:55;17.85;;;11.53;;
15516;SDS011;7860;52.030;5.572;2023-03-01T04:58:56;16.81;;;11.44;;
15516;SDS011;7860;52.030;5.572;2023-03-01T04:59:57;17.95;;;11.28;;
15516;SDS011;7860;52.030;5.572;2023-03-01T05:00:58;18.19;;;12.22;;
15516;SDS011;7860;52.030;5.572;2023-03-01T05:01:59;17.19;;;11.32;;
15516;SDS011;7860;52.030;5.572;2023-03-01T05:03:00;19.08;;;12.01;;
15516;SDS011;7860;52.030;5.572;2023-03-01T05:04:00;15.44;;;11.16;;
15516;SDS011;7860;52.030;5.572;2023-03-01T05:05:01;18.44;;;11.84;;
15516;SDS011;7860;52.030;5.572;2023-03-01T05:06:01;18.25;;;11.40;;
15516;SDS011;7860;52.030;5.572;2023-03-01T05:07:01;18.61;;;11.57;;
15516;SDS011;7860;52.030;5.572;2023-03-01T05:08:03;17.25;;;11.68;;
15516;SDS011;7860;52.030;5.572;2023-03-01T05:09:03;18.81;;;11.76;;
15516;SDS011;7860;52.030;5.572;2023-03-01T05:10:04;16.84;;;11.63;;
15516;SDS011;7860;52.030;5.572;2023-03-01T05:11:05;17.72;;;11.59;;
15516;SDS011;7860;52.030;5.572;2023-03-01T05:12:06;17.06;;;11.21;;
15516;SDS011;7860;52.030;5.572;2023-03-01T05:13:06;17.97;;;11.81;;
15516;SDS011;7860;52.030;5.572;2023-03-01T05:14:07;17.91;;;11.99;;
15516;SDS011;7860;52.030;5.572;2023-03-01T05:15:07;18.35;;;12.05;;
15516;SDS011;7860;52.030;5.572;2023-03-01T05:16:08;17.27;;;11.71;;
15516;SDS011;7860;52.030;5.572;2023-03-01T05:17:08;18.61;;;11.99;;
15516;SDS011;7860;52.030;5.572;2023-03-01T05:18:09;19.30;;;11.84;;
15516;SDS011;7860;52.030;5.572;2023-03-01T05:19:10;17.45;;;11.55;;
15516;SDS011;7860;52.030;5.572;2023-03-01T05:20:11;19.12;;;12.14;;
15516;SDS011;7860;52.030;5.572;2023-03-01T05:21:13;19.69;;;12.13;;
15516;SDS011;7860;52.030;5.572;2023-03-01T05:22:13;21.28;;;13.06;;
15516;SDS011;7860;52.030;5.572;2023-03-01T05:23:14;19.20;;;12.28;;
15516;SDS011;7860;52.030;5.572;2023-03-01T05:24:15;22.55;;;13.35;;
15516;SDS011;7860;52.030;5.572;2023-03-01T05:25:16;21.79;;;12.99;;
15516;SDS011;7860;52.030;5.572;2023-03-01T05:26:16;22.60;;;13.17;;
15516;SDS011;7860;52.030;5.572;2023-03-01T05:27:16;19.92;;;13.19;;
15516;SDS011;7860;52.030;5.572;2023-03-01T05:28:18;20.39;;;12.96;;
15516;SDS011;7860;52.030;5.572;2023-03-01T05:29:18;18.48;;;12.14;;
15516;SDS011;7860;52.030;5.572;2023-03-01T05:30:18;19.66;;;13.03;;
15516;SDS011;7860;52.030;5.572;2023-03-01T05:31:19;17.93;;;12.79;;
15516;SDS011;7860;52.030;5.572;2023-03-01T05:32:20;18.66;;;12.43;;
15516;SDS011;7860;52.030;5.572;2023-03-01T05:33:21;19.50;;;13.05;;
15516;SDS011;7860;52.030;5.572;2023-03-01T05:34:23;21.55;;;12.91;;
15516;SDS011;7860;52.030;5.572;2023-03-01T05:35:23;20.38;;;13.06;;
15516;SDS011;7860;52.030;5.572;2023-03-01T05:36:24;19.29;;;12.67;;
15516;SDS011;7860;52.030;5.572;2023-03-01T05:37:24;19.45;;;13.16;;
15516;SDS011;7860;52.030;5.572;2023-03-01T05:38:25;21.55;;;13.59;;
15516;SDS011;7860;52.030;5.572;2023-03-01T05:39:27;21.56;;;13.45;;
15516;SDS011;7860;52.030;5.572;2023-03-01T05:40:27;19.54;;;12.84;;
15516;SDS011;7860;52.030;5.572;2023-03-01T05:41:28;22.93;;;13.38;;
15516;SDS011;7860;52.030;5.572;2023-03-01T05:42:28;22.27;;;13.03;;
15516;SDS011;7860;52.030;5.572;2023-03-01T05:43:30;21.41;;;12.87;;
15516;SDS011;7860;52.030;5.572;2023-03-01T05:44:30;18.67;;;12.80;;
15516;SDS011;7860;52.030;5.572;2023-03-01T05:45:31;19.64;;;12.85;;
15516;SDS011;7860;52.030;5.572;2023-03-01T05:46:32;19.35;;;12.61;;
15516;SDS011;7860;52.030;5.572;2023-03-01T05:47:33;22.73;;;13.16;;
15516;SDS011;7860;52.030;5.572;2023-03-01T05:48:33;23.83;;;13.17;;
15516;SDS011;7860;52.030;5.572;2023-03-01T05:49:34;23.67;;;13.05;;
15516;SDS011;7860;52.030;5.572;2023-03-01T05:50:36;25.52;;;13.81;;
15516;SDS011;7860;52.030;5.572;2023-03-01T05:51:36;24.72;;;14.14;;
15516;SDS011;7860;52.030;5.572;2023-03-01T05:52:37;21.30;;;12.78;;
15516;SDS011;7860;52.030;5.572;2023-03-01T05:53:38;23.55;;;13.18;;
15516;SDS011;7860;52.030;5.572;2023-03-01T05:54:39;18.77;;;12.77;;
15516;SDS011;7860;52.030;5.572;2023-03-01T05:55:40;22.67;;;13.20;;
15516;SDS011;7860;52.030;5.572;2023-03-01T05:56:41;20.22;;;12.52;;
15516;SDS011;7860;52.030;5.572;2023-03-01T05:57:42;20.68;;;12.93;;
15516;SDS011;7860;52.030;5.572;2023-03-01T05:58:42;18.88;;;12.72;;
15516;SDS011;7860;52.030;5.572;2023-03-01T05:59:43;20.25;;;13.03;;
15516;SDS011;7860;52.030;5.572;2023-03-01T06:00:45;19.66;;;12.81;;